logo dgac
Miércoles 28 de Febrero del 2024
Buscar por aerodromo o helipuerto
Ingrese nombre de aeródromo, localidad o designador OACI:
TAF: TAF SCVM 272200Z 2800/2824 30010KT CAVOK TX20/2819Z TN13/2810Z TEMPO 2800/2803 SCT015 BECMG 2801/2803 29004KT BECMG 2806/2808 15004KT TEMPO 2808/2812 BKN010 BECMG 2814/2816 29010KT
TAF del 27/02/2024 a las 22:00 UTC
Para mayor información visite www.meteochile.gob.cl
Período de validez: desde el 28 a las 00:00 UTC hasta el 28 a las 24:00 UTC
Viento: dirección 300 grados, velocidad 10 nudos
Visibilidad: 10 km o más,
    sin nubes bajo los 5.000 pies o bajo del MSA (Mínimo de Seguridad del Aeródromo),
    sin cumulonimbus, y sin fenómenos de tiempo significativo en el aeródromo o alrededores
Temperatura máxima: 20ºC el 28 a las 19:00 UTC
Temperatura mínima: 13ºC el 28 a las 10:00 UTC
Se espera en forma temporal entre las 00:00 UTC del 28 y las 03:00 UTC del 28:
Nubes: Nubosidad parcial a 1500 pies sobre el nivel del aeródromo
Se espera un cambio entre las 01:00 UTC del 28 y las 03:00 UTC del 28, :
Viento: dirección 290 grados, velocidad 4 nudos
Se espera un cambio entre las 06:00 UTC del 28 y las 08:00 UTC del 28, :
Viento: dirección 150 grados, velocidad 4 nudos
Se espera en forma temporal entre las 08:00 UTC del 28 y las 12:00 UTC del 28:
Nubes: Nublado a 1000 pies sobre el nivel del aeródromo
Se espera un cambio entre las 14:00 UTC del 28 y las 16:00 UTC del 28, :
Viento: dirección 290 grados, velocidad 10 nudos